<?xml version="1.0" encoding="UTF-8" standalone="no" ?>
<gpx xmlns="http://www.topografix.com/GPX/1/1" xmlns:xsi="http://www.w3.org/2001/XMLSchema-instance" xsi:schemaLocation="http://www.topografix.com/GPX/1/1 http://www.topografix.com/GPX/1/1/gpx.xsd" version="1.1" creator="VisuGPX - https://www.visugpx.com">
  <metadata>
    <name>13830382-Aaa 01</name>
  </metadata>
  <trk>
    <name><![CDATA[13830382-Aaa 01]]></name>
    <extensions>
      <line xmlns="http://www.topografix.com/GPX/gpx_style/0/2">
        <color>0000FF</color>
        <width>4</width>
      </line>
    </extensions>
    <trkseg>
      <trkpt lat="48.0634" lon="7.0223">
        <ele>1142</ele>
        <time>2021-10-15T19:49:21Z</time>
      </trkpt>
      <trkpt lat="48.06297" lon="7.02325">
        <ele>1154</ele>
        <time>2021-10-15T19:50:22Z</time>
      </trkpt>
      <trkpt lat="48.06248" lon="7.02356">
        <ele>1163</ele>
        <time>2021-10-15T19:51:05Z</time>
      </trkpt>
      <trkpt lat="48.06218" lon="7.02381">
        <ele>1167</ele>
        <time>2021-10-15T19:51:32Z</time>
      </trkpt>
      <trkpt lat="48.06209" lon="7.02413">
        <ele>1168</ele>
        <time>2021-10-15T19:51:51Z</time>
      </trkpt>
      <trkpt lat="48.06191" lon="7.02397">
        <ele>1171</ele>
        <time>2021-10-15T19:52:08Z</time>
      </trkpt>
      <trkpt lat="48.06164" lon="7.02415">
        <ele>1176</ele>
        <time>2021-10-15T19:52:31Z</time>
      </trkpt>
      <trkpt lat="48.06041" lon="7.0243">
        <ele>1187</ele>
        <time>2021-10-15T19:54:10Z</time>
      </trkpt>
      <trkpt lat="48.05866" lon="7.02329">
        <ele>1205</ele>
        <time>2021-10-15T19:56:40Z</time>
      </trkpt>
      <trkpt lat="48.05737" lon="7.02381">
        <ele>1224</ele>
        <time>2021-10-15T19:58:27Z</time>
      </trkpt>
      <trkpt lat="48.05537" lon="7.02327">
        <ele>1239</ele>
        <time>2021-10-15T20:01:10Z</time>
      </trkpt>
      <trkpt lat="48.05375" lon="7.02142">
        <ele>1238</ele>
        <time>2021-10-15T20:03:53Z</time>
      </trkpt>
      <trkpt lat="48.05224" lon="7.02003">
        <ele>1233</ele>
        <time>2021-10-15T20:06:15Z</time>
      </trkpt>
      <trkpt lat="48.05125" lon="7.01805">
        <ele>1226</ele>
        <time>2021-10-15T20:08:28Z</time>
      </trkpt>
      <trkpt lat="48.04951" lon="7.01608">
        <ele>1242</ele>
        <time>2021-10-15T20:11:22Z</time>
      </trkpt>
      <trkpt lat="48.04853" lon="7.01517">
        <ele>1255</ele>
        <time>2021-10-15T20:12:55Z</time>
      </trkpt>
      <trkpt lat="48.0475" lon="7.01499">
        <ele>1264</ele>
        <time>2021-10-15T20:14:18Z</time>
      </trkpt>
      <trkpt lat="48.0463" lon="7.01359">
        <ele>1270</ele>
        <time>2021-10-15T20:16:20Z</time>
      </trkpt>
      <trkpt lat="48.0449" lon="7.01268">
        <ele>1272</ele>
        <time>2021-10-15T20:18:22Z</time>
      </trkpt>
      <trkpt lat="48.04155" lon="7.01089">
        <ele>1293</ele>
        <time>2021-10-15T20:23:07Z</time>
      </trkpt>
      <trkpt lat="48.03508" lon="7.01068">
        <ele>1272</ele>
        <time>2021-10-15T20:31:45Z</time>
      </trkpt>
      <trkpt lat="48.03384" lon="7.01001">
        <ele>1289</ele>
        <time>2021-10-15T20:33:30Z</time>
      </trkpt>
      <trkpt lat="48.03127" lon="7.01341">
        <ele>1274</ele>
        <time>2021-10-15T20:38:05Z</time>
      </trkpt>
      <trkpt lat="48.03015" lon="7.0115">
        <ele>1289</ele>
        <time>2021-10-15T20:40:21Z</time>
      </trkpt>
      <trkpt lat="48.02871" lon="7.00913">
        <ele>1275</ele>
        <time>2021-10-15T20:43:13Z</time>
      </trkpt>
      <trkpt lat="48.02566" lon="7.0084">
        <ele>1281</ele>
        <time>2021-10-15T20:47:20Z</time>
      </trkpt>
      <trkpt lat="48.02349" lon="7.00658">
        <ele>1292</ele>
        <time>2021-10-15T20:50:39Z</time>
      </trkpt>
      <trkpt lat="48.02154" lon="7.00713">
        <ele>1307</ele>
        <time>2021-10-15T20:53:18Z</time>
      </trkpt>
      <trkpt lat="48.02065" lon="7.00877">
        <ele>1291</ele>
        <time>2021-10-15T20:55:11Z</time>
      </trkpt>
      <trkpt lat="48.01962" lon="7.01044">
        <ele>1275</ele>
        <time>2021-10-15T20:57:13Z</time>
      </trkpt>
      <trkpt lat="48.01874" lon="7.01013">
        <ele>1269</ele>
        <time>2021-10-15T20:58:25Z</time>
      </trkpt>
      <trkpt lat="48.01828" lon="7.00938">
        <ele>1266</ele>
        <time>2021-10-15T20:59:20Z</time>
      </trkpt>
      <trkpt lat="48.01824" lon="7.00449">
        <ele>1251</ele>
        <time>2021-10-15T21:03:42Z</time>
      </trkpt>
      <trkpt lat="48.0171" lon="6.99965">
        <ele>1231</ele>
        <time>2021-10-15T21:08:16Z</time>
      </trkpt>
      <trkpt lat="48.01933" lon="6.99328">
        <ele>1240</ele>
        <time>2021-10-15T21:14:41Z</time>
      </trkpt>
      <trkpt lat="48.01844" lon="6.98957">
        <ele>1239</ele>
        <time>2021-10-15T21:18:13Z</time>
      </trkpt>
      <trkpt lat="48.01454" lon="6.98569">
        <ele>1192</ele>
        <time>2021-10-15T21:24:28Z</time>
      </trkpt>
      <trkpt lat="48.01202" lon="6.98247">
        <ele>1223</ele>
        <time>2021-10-15T21:28:53Z</time>
      </trkpt>
      <trkpt lat="48.00934" lon="6.9764">
        <ele>1230</ele>
        <time>2021-10-15T21:35:23Z</time>
      </trkpt>
      <trkpt lat="48.00618" lon="6.969">
        <ele>1113</ele>
        <time>2021-10-15T21:43:13Z</time>
      </trkpt>
      <trkpt lat="48.00532" lon="6.96894">
        <ele>1079</ele>
        <time>2021-10-15T21:44:22Z</time>
      </trkpt>
      <trkpt lat="48.00329" lon="6.96615">
        <ele>1033</ele>
        <time>2021-10-15T21:48:03Z</time>
      </trkpt>
      <trkpt lat="47.99757" lon="6.96214">
        <ele>1078</ele>
        <time>2021-10-15T21:56:29Z</time>
      </trkpt>
      <trkpt lat="48.00049" lon="6.95626">
        <ele>1074</ele>
        <time>2021-10-15T22:03:01Z</time>
      </trkpt>
      <trkpt lat="48.00021" lon="6.94563">
        <ele>971</ele>
        <time>2021-10-15T22:12:31Z</time>
      </trkpt>
      <trkpt lat="47.99982" lon="6.94098">
        <ele>983.5</ele>
        <time>2021-10-15T22:19:33Z</time>
      </trkpt>
      <trkpt lat="47.99141" lon="6.93441">
        <ele>1049.8</ele>
        <time>2021-10-15T22:21:37Z</time>
      </trkpt>
      <trkpt lat="47.99054" lon="6.92765">
        <ele>1068</ele>
        <time>2021-10-15T22:26:44Z</time>
      </trkpt>
      <trkpt lat="47.98928" lon="6.93285">
        <ele>1121.5</ele>
      </trkpt>
      <trkpt lat="47.98985" lon="6.93913">
        <ele>1150.1</ele>
      </trkpt>
      <trkpt lat="47.98945" lon="6.943">
        <ele>1142.7</ele>
      </trkpt>
      <trkpt lat="47.99015" lon="6.94592">
        <ele>1132.4</ele>
        <time>2021-10-15T22:30:43Z</time>
      </trkpt>
      <trkpt lat="47.98793" lon="6.94501">
        <ele>1092.5</ele>
      </trkpt>
      <trkpt lat="47.98821" lon="6.94771">
        <ele>1079.8</ele>
        <time>2021-10-15T22:33:51Z</time>
      </trkpt>
      <trkpt lat="47.98728" lon="6.94687">
        <ele>1051</ele>
      </trkpt>
      <trkpt lat="47.98763" lon="6.94908">
        <ele>1021</ele>
      </trkpt>
      <trkpt lat="47.98602" lon="6.95204">
        <ele>944.3</ele>
      </trkpt>
      <trkpt lat="47.98573" lon="6.95061">
        <ele>896.2</ele>
        <time>2021-10-15T22:37:56Z</time>
      </trkpt>
      <trkpt lat="47.98467" lon="6.94875">
        <ele>875.2</ele>
      </trkpt>
      <trkpt lat="47.98266" lon="6.94928">
        <ele>860</ele>
        <time>2021-10-15T22:41:49Z</time>
      </trkpt>
      <trkpt lat="47.98194" lon="6.95152">
        <ele>810.2</ele>
      </trkpt>
      <trkpt lat="47.98151" lon="6.95282">
        <ele>800.4</ele>
        <time>2021-10-15T22:45:25Z</time>
      </trkpt>
      <trkpt lat="47.98114" lon="6.95354">
        <ele>796.6</ele>
        <time>2021-10-15T22:46:56Z</time>
      </trkpt>
      <trkpt lat="47.98029" lon="6.95454">
        <ele>781.2</ele>
        <time>2021-10-15T22:49:23Z</time>
      </trkpt>
      <trkpt lat="47.98168" lon="6.95467">
        <ele>756.9</ele>
      </trkpt>
      <trkpt lat="47.97918" lon="6.95503">
        <ele>798</ele>
        <time>2021-10-15T22:54:36Z</time>
      </trkpt>
      <trkpt lat="47.97742" lon="6.95526">
        <ele>799.7</ele>
      </trkpt>
      <trkpt lat="47.97641" lon="6.95623">
        <ele>750.8</ele>
        <time>2021-10-15T22:57:34Z</time>
      </trkpt>
      <trkpt lat="47.9747" lon="6.9571">
        <ele>696</ele>
        <time>2021-10-15T23:00:44Z</time>
      </trkpt>
      <trkpt lat="47.97401" lon="6.95261">
        <ele>777</ele>
        <time>2021-10-15T23:04:51Z</time>
      </trkpt>
      <trkpt lat="47.96775" lon="6.95061">
        <ele>853</ele>
        <time>2021-10-15T23:13:23Z</time>
      </trkpt>
      <trkpt lat="47.96734" lon="6.94691">
        <ele>870</ele>
        <time>2021-10-15T23:16:44Z</time>
      </trkpt>
      <trkpt lat="47.96791" lon="6.94369">
        <ele>901</ele>
        <time>2021-10-15T23:19:43Z</time>
      </trkpt>
      <trkpt lat="47.9695" lon="6.94108">
        <ele>926</ele>
        <time>2021-10-15T23:22:52Z</time>
      </trkpt>
      <trkpt lat="47.96714" lon="6.93756">
        <ele>954</ele>
        <time>2021-10-15T23:27:19Z</time>
      </trkpt>
      <trkpt lat="47.97124" lon="6.93404">
        <ele>1016</ele>
        <time>2021-10-15T23:33:38Z</time>
      </trkpt>
      <trkpt lat="47.97315" lon="6.93192">
        <ele>1018</ele>
        <time>2021-10-15T23:36:48Z</time>
      </trkpt>
      <trkpt lat="47.96999" lon="6.9267">
        <ele>1054</ele>
        <time>2021-10-15T23:43:05Z</time>
      </trkpt>
      <trkpt lat="47.96665" lon="6.92463">
        <ele>1092</ele>
        <time>2021-10-15T23:47:55Z</time>
      </trkpt>
      <trkpt lat="47.96389" lon="6.92445">
        <ele>1118</ele>
        <time>2021-10-15T23:51:36Z</time>
      </trkpt>
      <trkpt lat="47.96056" lon="6.92148">
        <ele>1151</ele>
        <time>2021-10-15T23:56:47Z</time>
      </trkpt>
      <trkpt lat="47.95979" lon="6.92548">
        <ele>1195</ele>
        <time>2021-10-16T00:00:30Z</time>
      </trkpt>
      <trkpt lat="47.9571" lon="6.92585">
        <ele>1176</ele>
        <time>2021-10-16T00:04:06Z</time>
      </trkpt>
      <trkpt lat="47.9534" lon="6.92336">
        <ele>1144</ele>
        <time>2021-10-16T00:09:31Z</time>
      </trkpt>
      <trkpt lat="47.95015" lon="6.92567">
        <ele>1133</ele>
        <time>2021-10-16T00:14:19Z</time>
      </trkpt>
      <trkpt lat="47.94881" lon="6.93344">
        <ele>1034</ele>
        <time>2021-10-16T00:21:30Z</time>
      </trkpt>
      <trkpt lat="47.94759" lon="6.94029">
        <ele>907</ele>
        <time>2021-10-16T00:27:50Z</time>
      </trkpt>
      <trkpt lat="47.94706" lon="6.94563">
        <ele>777</ele>
        <time>2021-10-16T00:32:39Z</time>
      </trkpt>
      <trkpt lat="47.94857" lon="6.94576">
        <ele>766</ele>
        <time>2021-10-16T00:34:40Z</time>
      </trkpt>
      <trkpt lat="47.94466" lon="6.95189">
        <ele>594</ele>
        <time>2021-10-16T00:42:14Z</time>
      </trkpt>
      <trkpt lat="47.94629" lon="6.95322">
        <ele>555</ele>
        <time>2021-10-16T00:44:43Z</time>
      </trkpt>
      <trkpt lat="47.94678" lon="6.9568">
        <ele>559</ele>
        <time>2021-10-16T00:47:59Z</time>
      </trkpt>
      <trkpt lat="47.95068" lon="6.95571">
        <ele>553</ele>
        <time>2021-10-16T00:53:17Z</time>
      </trkpt>
      <trkpt lat="47.95442" lon="6.95783">
        <ele>551</ele>
        <time>2021-10-16T00:58:37Z</time>
      </trkpt>
      <trkpt lat="47.95418" lon="6.96123">
        <ele>559</ele>
        <time>2021-10-16T01:01:40Z</time>
      </trkpt>
      <trkpt lat="47.9519" lon="6.96202">
        <ele>593</ele>
        <time>2021-10-16T01:04:48Z</time>
      </trkpt>
      <trkpt lat="47.94788" lon="6.96396">
        <ele>626</ele>
        <time>2021-10-16T01:10:26Z</time>
      </trkpt>
      <trkpt lat="47.94771" lon="6.967">
        <ele>675</ele>
        <time>2021-10-16T01:13:10Z</time>
      </trkpt>
      <trkpt lat="47.95198" lon="6.96797">
        <ele>768</ele>
        <time>2021-10-16T01:18:55Z</time>
      </trkpt>
      <trkpt lat="47.95446" lon="6.97155">
        <ele>842</ele>
        <time>2021-10-16T01:23:32Z</time>
      </trkpt>
      <trkpt lat="47.9545" lon="6.97725">
        <ele>928</ele>
        <time>2021-10-16T01:28:37Z</time>
      </trkpt>
      <trkpt lat="47.95913" lon="6.98065">
        <ele>952</ele>
        <time>2021-10-16T01:35:30Z</time>
      </trkpt>
      <trkpt lat="47.96222" lon="6.97992">
        <ele>984</ele>
        <time>2021-10-16T01:39:41Z</time>
      </trkpt>
      <trkpt lat="47.96308" lon="6.98175">
        <ele>1016</ele>
        <time>2021-10-16T01:41:41Z</time>
      </trkpt>
      <trkpt lat="47.96153" lon="6.98205">
        <ele>1006</ele>
        <time>2021-10-16T01:43:46Z</time>
      </trkpt>
      <trkpt lat="47.966" lon="6.99079">
        <ele>1153</ele>
        <time>2021-10-16T01:53:35Z</time>
      </trkpt>
      <trkpt lat="47.96779" lon="6.99461">
        <ele>1195</ele>
        <time>2021-10-16T01:57:45Z</time>
      </trkpt>
      <trkpt lat="47.96966" lon="6.9968">
        <ele>1179</ele>
        <time>2021-10-16T02:00:56Z</time>
      </trkpt>
      <trkpt lat="47.97222" lon="6.99777">
        <ele>1116</ele>
        <time>2021-10-16T02:04:27Z</time>
      </trkpt>
      <trkpt lat="47.98177" lon="7.01282">
        <ele>759</ele>
        <time>2021-10-16T02:22:59Z</time>
      </trkpt>
      <trkpt lat="47.98193" lon="7.01813">
        <ele>662</ele>
        <time>2021-10-16T02:27:44Z</time>
      </trkpt>
      <trkpt lat="47.98596" lon="7.01864">
        <ele>649</ele>
        <time>2021-10-16T02:33:07Z</time>
      </trkpt>
      <trkpt lat="47.98883" lon="7.01869">
        <ele>669</ele>
        <time>2021-10-16T02:36:57Z</time>
      </trkpt>
      <trkpt lat="47.99412" lon="7.0191">
        <ele>717</ele>
        <time>2021-10-16T02:44:01Z</time>
      </trkpt>
      <trkpt lat="47.99716" lon="7.01853">
        <ele>773</ele>
        <time>2021-10-16T02:48:07Z</time>
      </trkpt>
      <trkpt lat="47.99965" lon="7.02195">
        <ele>699</ele>
        <time>2021-10-16T02:52:37Z</time>
      </trkpt>
      <trkpt lat="48.00153" lon="7.02517">
        <ele>617</ele>
        <time>2021-10-16T02:56:26Z</time>
      </trkpt>
      <trkpt lat="48.0017" lon="7.02874">
        <ele>590</ele>
        <time>2021-10-16T02:59:38Z</time>
      </trkpt>
    </trkseg>
  </trk>
</gpx>